createdAt,value
2022-10-20T00:01:26.994Z,7.95
2022-10-20T00:03:56.277Z,7.90
2022-10-20T00:06:30.255Z,7.87
2022-10-20T00:09:01.414Z,7.81
2022-10-20T00:11:31.786Z,7.75
2022-10-20T00:14:01.944Z,7.70
2022-10-20T00:16:32.679Z,7.69
2022-10-20T00:19:00.679Z,7.67
2022-10-20T00:21:31.682Z,7.63
2022-10-20T00:24:04.144Z,7.61
2022-10-20T00:26:32.714Z,7.60
2022-10-20T00:29:04.424Z,7.59
2022-10-20T00:31:33.444Z,7.60
2022-10-20T00:34:01.528Z,7.58
2022-10-20T00:36:32.096Z,7.57
2022-10-20T00:39:02.090Z,7.51
2022-10-20T00:41:31.218Z,7.52
2022-10-20T00:44:01.935Z,7.47
2022-10-20T00:46:39.781Z,7.40
2022-10-20T00:49:16.249Z,7.36
2022-10-20T00:51:44.905Z,7.29
2022-10-20T00:54:19.657Z,7.24
2022-10-20T00:56:49.517Z,7.20
2022-10-20T00:59:21.787Z,7.16
2022-10-20T01:01:50.209Z,7.13
2022-10-20T01:04:20.006Z,7.09
2022-10-20T01:06:48.595Z,7.06
2022-10-20T01:09:16.785Z,7.05
2022-10-20T01:11:48.040Z,7.05
2022-10-20T01:14:43.932Z,7.05
2022-10-20T01:17:24.107Z,7.05
2022-10-20T01:20:13.797Z,6.99
2022-10-20T01:23:05.841Z,7.02
2022-10-20T01:25:45.112Z,7.01
2022-10-20T01:28:27.219Z,6.97
2022-10-20T01:31:02.118Z,6.96
2022-10-20T01:33:56.581Z,6.92
2022-10-20T01:36:32.999Z,6.86
2022-10-20T01:39:06.476Z,6.87
2022-10-20T01:41:56.587Z,6.87
2022-10-20T01:44:30.371Z,6.85
2022-10-20T01:46:59.869Z,6.85
2022-10-20T01:49:31.050Z,6.83
2022-10-20T01:52:00.720Z,6.80
2022-10-20T01:54:30.518Z,6.77
2022-10-20T01:57:29.052Z,6.73
2022-10-20T02:00:21.855Z,6.70
2022-10-20T02:03:29.066Z,6.64
2022-10-20T02:06:42.277Z,6.57
2022-10-20T02:09:33.572Z,6.55
2022-10-20T02:12:33.241Z,6.51
2022-10-20T02:15:07.333Z,6.50
2022-10-20T02:17:39.823Z,6.46
2022-10-20T02:20:10.422Z,6.44
2022-10-20T02:22:40.597Z,6.43
2022-10-20T02:25:13.279Z,6.37
2022-10-20T02:27:46.468Z,6.32
2022-10-20T02:30:17.412Z,6.32
2022-10-20T02:32:49.706Z,6.31
2022-10-20T02:35:29.728Z,6.33
2022-10-20T02:37:58.861Z,6.30
2022-10-20T02:40:27.937Z,6.28
2022-10-20T02:42:55.942Z,6.25
2022-10-20T02:45:23.930Z,6.21
2022-10-20T02:47:53.320Z,6.17
2022-10-20T02:50:21.329Z,6.11
2022-10-20T02:52:49.527Z,6.08
2022-10-20T02:57:54.093Z,6.01
2022-10-20T03:00:22.495Z,5.98
2022-10-20T03:02:52.555Z,5.96
2022-10-20T03:05:20.968Z,5.89
2022-10-20T03:07:50.465Z,5.90
2022-10-20T03:10:19.408Z,5.93
2022-10-20T03:12:47.515Z,5.96
2022-10-20T03:15:15.831Z,6.01
2022-10-20T03:17:47.028Z,6.02
2022-10-20T03:20:15.107Z,6.03
2022-10-20T03:22:43.076Z,6.02
2022-10-20T03:25:11.376Z,6.04
2022-10-20T03:27:39.571Z,6.02
2022-10-20T03:30:09.462Z,5.99
2022-10-20T03:32:37.887Z,5.97
2022-10-20T03:35:06.561Z,5.91
2022-10-20T03:37:35.665Z,5.84
2022-10-20T03:40:03.946Z,5.81
2022-10-20T03:42:32.343Z,5.80
2022-10-20T03:45:00.482Z,5.77
2022-10-20T03:47:28.812Z,5.77
2022-10-20T03:49:56.760Z,5.77
2022-10-20T03:52:25.099Z,5.79
2022-10-20T03:54:55.260Z,5.78
2022-10-20T03:57:24.196Z,5.76
2022-10-20T03:59:54.579Z,5.75
2022-10-20T04:02:32.470Z,5.70
2022-10-20T04:05:01.100Z,5.65
2022-10-20T04:07:29.100Z,5.63
2022-10-20T04:09:59.033Z,5.61
2022-10-20T04:12:27.080Z,5.63
2022-10-20T04:14:55.216Z,5.63
2022-10-20T04:17:23.283Z,5.63
2022-10-20T04:19:51.284Z,5.62
2022-10-20T04:22:19.706Z,5.60
2022-10-20T04:24:47.673Z,5.57
2022-10-20T04:27:17.660Z,5.52
2022-10-20T04:29:46.982Z,5.50
2022-10-20T04:32:15.169Z,5.46
2022-10-20T04:34:43.600Z,5.44
2022-10-20T04:37:12.201Z,5.43
2022-10-20T04:39:40.138Z,5.41
2022-10-20T04:42:08.689Z,5.39
2022-10-20T04:44:39.119Z,5.39
2022-10-20T04:47:07.138Z,5.39
2022-10-20T04:49:37.640Z,5.37
2022-10-20T04:52:05.840Z,5.36
2022-10-20T04:54:34.032Z,5.34
2022-10-20T04:57:05.096Z,5.34
2022-10-20T04:59:33.293Z,5.31
2022-10-20T05:02:01.488Z,5.27
2022-10-20T05:04:31.000Z,5.27
2022-10-20T05:07:01.460Z,5.23
2022-10-20T05:09:30.115Z,5.23
2022-10-20T05:11:59.909Z,5.23
2022-10-20T05:14:29.987Z,5.23
2022-10-20T05:16:58.624Z,5.23
2022-10-20T05:19:26.662Z,5.24
2022-10-20T05:21:54.952Z,5.22
2022-10-20T05:24:24.478Z,5.22
2022-10-20T05:26:55.413Z,5.20
2022-10-20T05:29:27.178Z,5.17
2022-10-20T05:31:55.863Z,5.20
2022-10-20T05:34:24.281Z,5.20
2022-10-20T05:36:55.618Z,5.21
2022-10-20T05:39:24.136Z,5.23
2022-10-20T05:41:52.330Z,5.25
2022-10-20T05:44:20.386Z,5.26
2022-10-20T05:46:48.809Z,5.29
2022-10-20T05:49:17.855Z,5.31
2022-10-20T05:51:48.704Z,5.32
2022-10-20T05:54:16.927Z,5.35
2022-10-20T05:56:45.201Z,5.37
2022-10-20T05:59:14.128Z,5.42
2022-10-20T06:01:49.114Z,5.44
2022-10-20T06:04:19.570Z,5.47
2022-10-20T06:06:52.458Z,5.53
2022-10-20T06:09:22.890Z,5.58
2022-10-20T06:11:51.844Z,5.65
2022-10-20T06:14:22.577Z,5.72
2022-10-20T06:16:53.945Z,5.79
2022-10-20T06:19:23.623Z,5.84
2022-10-20T06:21:52.007Z,5.92
2022-10-20T06:24:20.673Z,5.97
2022-10-20T06:26:49.312Z,6.05
2022-10-20T06:29:18.994Z,6.14
2022-10-20T06:31:51.839Z,6.22
2022-10-20T06:34:23.677Z,6.30
2022-10-20T06:36:53.503Z,6.40
2022-10-20T06:39:26.282Z,6.49
2022-10-20T06:42:11.336Z,6.55
2022-10-20T06:44:46.157Z,6.65
2022-10-20T06:47:16.441Z,6.71
2022-10-20T06:49:44.595Z,6.79
2022-10-20T06:52:12.846Z,6.85
2022-10-20T06:54:41.041Z,6.93
2022-10-20T06:57:09.200Z,7.01
2022-10-20T06:59:38.826Z,7.10
2022-10-20T07:02:07.040Z,7.16
2022-10-20T07:04:37.199Z,7.24
2022-10-20T07:07:05.643Z,7.35
2022-10-20T07:09:36.734Z,7.39
2022-10-20T07:12:23.701Z,7.47
2022-10-20T07:15:14.063Z,7.53
2022-10-20T07:17:43.329Z,7.56
2022-10-20T07:20:11.951Z,7.64
2022-10-20T07:22:41.132Z,7.66
2022-10-20T07:25:10.530Z,7.73
2022-10-20T07:27:41.448Z,7.79
2022-10-20T07:30:10.271Z,7.86
2022-10-20T07:32:38.936Z,7.89
2022-10-20T07:35:09.745Z,7.95
2022-10-20T07:37:38.406Z,7.95
2022-10-20T07:40:08.346Z,7.92
2022-10-20T07:42:39.121Z,7.97
2022-10-20T07:45:08.503Z,8.05
2022-10-20T07:47:40.105Z,8.04
2022-10-20T07:50:12.994Z,8.04
2022-10-20T07:52:41.456Z,8.06
2022-10-20T07:55:17.853Z,8.18
2022-10-20T07:57:58.500Z,8.17
2022-10-20T08:00:29.192Z,8.23
2022-10-20T08:02:58.719Z,8.23
2022-10-20T08:05:27.378Z,8.40
2022-10-20T08:07:58.238Z,8.38
2022-10-20T08:10:26.612Z,8.34
2022-10-20T08:12:55.313Z,8.38
2022-10-20T08:15:23.815Z,8.40
2022-10-20T08:17:52.217Z,8.42
2022-10-20T08:20:24.991Z,8.47
2022-10-20T08:22:56.030Z,8.45
2022-10-20T08:25:25.563Z,8.48
2022-10-20T08:27:53.774Z,8.59
2022-10-20T08:30:24.385Z,8.68
2022-10-20T08:32:55.151Z,8.71
2022-10-20T08:35:28.779Z,8.78
2022-10-20T08:37:57.286Z,8.86
2022-10-20T08:40:31.105Z,8.90
2022-10-20T08:42:59.241Z,9.01
2022-10-20T08:45:33.637Z,9.01
2022-10-20T08:48:04.303Z,9.04
2022-10-20T08:50:34.302Z,9.06
2022-10-20T08:53:02.780Z,9.01
2022-10-20T08:55:33.995Z,9.09
2022-10-20T08:58:23.561Z,9.12
2022-10-20T09:00:58.215Z,9.21
2022-10-20T09:03:33.302Z,9.27
2022-10-20T09:06:16.420Z,9.32
2022-10-20T09:08:47.495Z,9.31
2022-10-20T09:11:36.104Z,9.40
2022-10-20T09:14:09.004Z,9.45
2022-10-20T09:16:59.396Z,9.44
2022-10-20T09:19:31.146Z,9.53
2022-10-20T09:22:07.859Z,9.58
2022-10-20T09:24:41.315Z,9.61
2022-10-20T09:27:30.507Z,9.65
2022-10-20T09:30:13.362Z,9.63
2022-10-20T09:32:47.788Z,9.57
2022-10-20T09:35:34.881Z,9.75
2022-10-20T09:38:19.261Z,9.80
2022-10-20T09:41:03.454Z,9.81
2022-10-20T09:43:58.262Z,9.74
2022-10-20T09:46:36.918Z,9.77
2022-10-20T09:49:06.866Z,9.87
2022-10-20T09:51:37.083Z,9.85
2022-10-20T09:54:15.771Z,9.89
2022-10-20T09:56:44.967Z,9.82
2022-10-20T09:59:33.454Z,9.91
2022-10-20T10:02:23.866Z,9.99
2022-10-20T10:04:53.965Z,10.14
2022-10-20T10:07:22.112Z,10.16
2022-10-20T10:09:59.533Z,10.20
2022-10-20T10:12:31.803Z,10.11
2022-10-20T10:15:05.880Z,10.14
2022-10-20T10:17:47.831Z,10.12
2022-10-20T10:20:18.582Z,10.27
2022-10-20T10:22:47.558Z,10.36
2022-10-20T10:25:29.843Z,10.34
2022-10-20T10:28:08.953Z,10.29
2022-10-20T10:30:38.355Z,10.30
2022-10-20T10:33:29.036Z,10.43
2022-10-20T10:35:57.444Z,10.48
2022-10-20T10:38:25.711Z,10.62
2022-10-20T10:41:05.324Z,10.74
2022-10-20T10:43:47.921Z,10.87
2022-10-20T10:46:26.881Z,10.94
2022-10-20T10:49:13.235Z,10.95
2022-10-20T10:52:11.664Z,10.99
2022-10-20T10:55:47.862Z,11.02
2022-10-20T10:58:37.424Z,11.04
2022-10-20T11:01:05.982Z,11.08
2022-10-20T11:04:08.915Z,11.23
2022-10-20T11:07:09.266Z,11.27
2022-10-20T11:09:49.472Z,11.41
2022-10-20T11:12:27.777Z,11.44
2022-10-20T11:15:27.060Z,11.44
2022-10-20T11:18:02.329Z,11.49
2022-10-20T11:20:36.590Z,11.64
2022-10-20T11:23:36.468Z,11.74
2022-10-20T11:26:14.326Z,12.00
2022-10-20T11:28:46.671Z,12.22
2022-10-20T11:31:37.859Z,12.80
2022-10-20T11:34:45.468Z,13.09
2022-10-20T11:37:41.356Z,13.67
2022-10-20T11:40:10.100Z,13.06
2022-10-20T11:42:51.468Z,13.94
2022-10-20T11:45:35.772Z,13.67
2022-10-20T11:48:16.415Z,13.60
2022-10-20T11:53:50.803Z,14.88
2022-10-20T11:56:47.179Z,14.95
2022-10-20T11:59:46.435Z,14.79
2022-10-20T12:02:17.664Z,15.21
2022-10-20T12:05:02.738Z,15.76
2022-10-20T12:07:41.490Z,15.81
2022-10-20T12:10:19.235Z,16.65
2022-10-20T12:12:57.876Z,16.11
2022-10-20T12:15:29.794Z,16.50
2022-10-20T12:18:06.025Z,16.45
2022-10-20T12:20:38.437Z,17.01
2022-10-20T12:23:06.800Z,16.94
2022-10-20T12:25:41.205Z,17.51
2022-10-20T12:28:22.765Z,17.99
2022-10-20T12:31:02.289Z,17.52
2022-10-20T12:33:50.539Z,16.93
2022-10-20T12:36:19.954Z,17.41
2022-10-20T12:38:51.588Z,17.77
2022-10-20T12:41:32.162Z,17.78
2022-10-20T12:44:05.670Z,17.62
2022-10-20T12:47:01.564Z,17.80
2022-10-20T12:49:38.182Z,17.92
2022-10-20T12:52:24.785Z,18.24
2022-10-20T12:55:39.625Z,17.77
2022-10-20T12:58:33.371Z,18.52
2022-10-20T13:01:08.698Z,18.43
2022-10-20T13:03:50.625Z,18.13
2022-10-20T13:06:24.285Z,18.24
2022-10-20T13:09:07.947Z,18.84
2022-10-20T13:11:38.602Z,19.43
2022-10-20T13:14:14.319Z,18.89
2022-10-20T13:17:05.035Z,19.28
2022-10-20T13:19:49.808Z,20.06
2022-10-20T13:22:41.869Z,20.43
2022-10-20T13:25:34.201Z,20.75
2022-10-20T13:28:15.035Z,20.59
2022-10-20T13:30:55.569Z,19.69
2022-10-20T13:34:03.325Z,19.59
2022-10-20T13:37:22.954Z,20.31
2022-10-20T13:40:04.588Z,19.78
2022-10-20T13:43:11.736Z,19.75
2022-10-20T13:46:07.158Z,19.98
2022-10-20T13:48:43.775Z,20.84
2022-10-20T13:51:26.882Z,20.56
2022-10-20T13:54:00.876Z,20.09
2022-10-20T13:56:40.965Z,19.98
2022-10-20T13:59:19.601Z,19.77
2022-10-20T14:01:58.863Z,19.81
2022-10-20T14:04:33.876Z,20.29
2022-10-20T14:07:17.367Z,20.86
2022-10-20T14:09:48.392Z,20.63
2022-10-20T14:12:36.119Z,21.06
2022-10-20T14:15:06.539Z,20.80
2022-10-20T14:17:40.746Z,20.21
2022-10-20T14:20:19.396Z,20.76
2022-10-20T14:22:49.084Z,19.92
2022-10-20T14:25:17.634Z,19.74
2022-10-20T14:27:49.960Z,20.40
2022-10-20T14:30:18.820Z,20.26
2022-10-20T14:32:50.306Z,20.10
2022-10-20T14:35:42.293Z,20.15
2022-10-20T14:38:33.347Z,20.52
2022-10-20T14:41:03.023Z,20.45
2022-10-20T14:43:45.808Z,20.49
2022-10-20T14:46:33.967Z,20.42
2022-10-20T14:49:03.346Z,20.09
2022-10-20T14:51:37.338Z,19.32
2022-10-20T14:54:36.984Z,19.84
2022-10-20T14:57:08.759Z,19.76
2022-10-20T15:00:02.813Z,19.16
2022-10-20T15:02:39.048Z,18.60
2022-10-20T15:05:32.328Z,18.73
2022-10-20T15:08:30.754Z,18.38
2022-10-20T15:10:59.079Z,17.47
2022-10-20T15:13:33.403Z,16.53
2022-10-20T15:16:04.646Z,15.66
2022-10-20T15:18:39.977Z,14.62
2022-10-20T15:21:08.663Z,13.58
2022-10-20T15:23:39.276Z,12.91
2022-10-20T15:26:16.259Z,12.50
2022-10-20T15:28:44.468Z,12.14
2022-10-20T15:31:26.734Z,11.77
2022-10-20T15:33:56.524Z,11.43
2022-10-20T15:36:42.402Z,11.28
2022-10-20T15:39:11.622Z,11.09
2022-10-20T15:41:41.202Z,10.92
2022-10-20T15:44:15.461Z,10.74
2022-10-20T15:46:45.097Z,10.53
2022-10-20T15:49:18.245Z,10.38
2022-10-20T15:51:48.191Z,10.22
2022-10-20T15:54:20.999Z,10.06
2022-10-20T15:56:49.737Z,9.92
2022-10-20T15:59:18.493Z,9.81
2022-10-20T16:01:46.754Z,9.68
2022-10-20T16:04:23.422Z,9.57
2022-10-20T16:06:59.029Z,9.41
2022-10-20T16:09:30.744Z,9.28
2022-10-20T16:12:01.462Z,9.14
2022-10-20T16:14:30.123Z,9.06
2022-10-20T16:17:00.806Z,9.00
2022-10-20T16:19:30.954Z,8.93
2022-10-20T16:21:59.383Z,8.85
2022-10-20T16:24:27.560Z,8.81
2022-10-20T16:26:55.693Z,8.77
2022-10-20T16:29:23.830Z,8.69
2022-10-20T16:31:51.954Z,8.58
2022-10-20T16:34:20.008Z,8.47
2022-10-20T16:36:50.091Z,8.39
2022-10-20T16:39:21.946Z,8.31
2022-10-20T16:41:53.087Z,8.28
2022-10-20T16:44:21.130Z,8.23
2022-10-20T16:46:50.269Z,8.12
2022-10-20T16:49:21.039Z,8.04
2022-10-20T16:51:49.515Z,7.94
2022-10-20T16:54:18.555Z,7.85
2022-10-20T16:56:50.631Z,7.72
2022-10-20T16:59:19.347Z,7.62
2022-10-20T17:01:47.356Z,7.52
2022-10-20T17:04:15.403Z,7.44
2022-10-20T17:06:45.484Z,7.39
2022-10-20T17:09:15.644Z,7.32
2022-10-20T17:11:43.804Z,7.26
2022-10-20T17:14:13.750Z,7.21
2022-10-20T17:16:45.013Z,7.17
2022-10-20T17:19:15.474Z,7.09
2022-10-20T17:21:46.657Z,7.04
2022-10-20T17:24:15.083Z,6.93
2022-10-20T17:26:43.771Z,6.82
2022-10-20T17:29:11.828Z,6.73
2022-10-20T17:31:39.865Z,6.63
2022-10-20T17:34:09.414Z,6.52
2022-10-20T17:36:39.515Z,6.41
2022-10-20T17:39:08.830Z,6.30
2022-10-20T17:41:36.954Z,6.20
2022-10-20T17:44:06.938Z,6.11
2022-10-20T17:46:36.266Z,6.03
2022-10-20T17:49:05.649Z,5.95
2022-10-20T17:51:37.440Z,5.88
2022-10-20T17:54:06.030Z,5.82
2022-10-20T17:56:39.304Z,5.72
2022-10-20T18:01:45.201Z,5.53
2022-10-20T18:04:16.581Z,5.46
2022-10-20T18:06:45.878Z,5.40
2022-10-20T18:09:16.621Z,5.31
2022-10-20T18:11:49.567Z,5.23
2022-10-20T18:14:19.234Z,5.17
2022-10-20T18:16:47.800Z,5.11
2022-10-20T18:19:19.823Z,5.06
2022-10-20T18:21:48.184Z,5.02
2022-10-20T18:24:18.679Z,4.97
2022-10-20T18:26:48.128Z,4.94
2022-10-20T18:29:17.346Z,4.91
2022-10-20T18:31:48.075Z,4.86
2022-10-20T18:34:22.248Z,4.82
2022-10-20T18:36:54.912Z,4.78
2022-10-20T18:39:24.903Z,4.73
2022-10-20T18:41:55.912Z,4.66
2022-10-20T18:44:24.382Z,4.61
2022-10-20T18:46:57.819Z,4.54
2022-10-20T18:49:26.482Z,4.48
2022-10-20T18:51:55.931Z,4.43
2022-10-20T18:54:24.588Z,4.37
2022-10-20T18:56:55.447Z,4.31
2022-10-20T18:59:23.828Z,4.24
2022-10-20T19:01:55.093Z,4.20
2022-10-20T19:04:25.033Z,4.17
2022-10-20T19:06:55.356Z,4.15
2022-10-20T19:09:23.448Z,4.12
2022-10-20T19:11:51.889Z,4.09
2022-10-20T19:14:19.983Z,4.04
2022-10-20T19:16:48.875Z,3.99
2022-10-20T19:19:17.457Z,3.94
2022-10-20T19:21:46.398Z,3.88
2022-10-20T19:24:18.617Z,3.84
2022-10-20T19:27:24.561Z,3.79
2022-10-20T19:29:46.348Z,3.74
2022-10-20T19:32:14.616Z,3.70
2022-10-20T19:34:42.726Z,3.68
2022-10-20T19:37:13.546Z,3.64
2022-10-20T19:39:42.549Z,3.62
2022-10-20T19:42:11.412Z,3.59
2022-10-20T19:44:40.332Z,3.57
2022-10-20T19:47:08.947Z,3.52
2022-10-20T19:49:37.862Z,3.49
2022-10-20T19:52:08.042Z,3.46
2022-10-20T19:54:37.153Z,3.41
2022-10-20T19:57:08.064Z,3.39
2022-10-20T19:59:36.258Z,3.35
2022-10-20T20:02:06.959Z,3.32
2022-10-20T20:04:35.638Z,3.28
2022-10-20T20:07:03.664Z,3.27
2022-10-20T20:09:31.792Z,3.25
2022-10-20T20:12:01.805Z,3.21
2022-10-20T20:14:30.982Z,3.19
2022-10-20T20:16:59.843Z,3.15
2022-10-20T20:19:30.246Z,3.11
2022-10-20T20:21:58.640Z,3.04
2022-10-20T20:24:26.769Z,2.98
2022-10-20T20:26:55.812Z,2.93
2022-10-20T20:29:24.726Z,2.88
2022-10-20T20:31:53.708Z,2.83
2022-10-20T20:34:21.844Z,2.80
2022-10-20T20:36:49.979Z,2.76
2022-10-20T20:39:19.875Z,2.74
2022-10-20T20:41:48.346Z,2.72
2022-10-20T20:44:20.427Z,2.71
2022-10-20T20:46:48.813Z,2.72
2022-10-20T20:49:17.594Z,2.72
2022-10-20T20:51:46.669Z,2.72
2022-10-20T20:54:14.849Z,2.71
2022-10-20T20:56:43.115Z,2.68
2022-10-20T20:59:11.164Z,2.65
2022-10-20T21:01:39.858Z,2.61
2022-10-20T21:04:11.461Z,2.57
2022-10-20T21:07:02.099Z,2.51
2022-10-20T21:09:30.786Z,2.43
2022-10-20T21:11:59.515Z,2.38
2022-10-20T21:14:28.031Z,2.33
2022-10-20T21:16:57.236Z,2.30
2022-10-20T21:19:25.309Z,2.25
2022-10-20T21:22:01.790Z,2.24
2022-10-20T21:24:29.827Z,2.19
2022-10-20T21:26:58.858Z,2.16
2022-10-20T21:29:29.030Z,2.10
2022-10-20T21:31:59.274Z,2.08
2022-10-20T21:34:28.453Z,2.05
2022-10-20T21:36:56.379Z,2.01
2022-10-20T21:39:24.666Z,1.96
2022-10-20T21:41:53.030Z,1.95
2022-10-20T21:44:21.633Z,1.93
2022-10-20T21:46:51.791Z,1.92
2022-10-20T21:49:25.383Z,1.92
2022-10-20T21:51:56.411Z,1.90
2022-10-20T21:54:26.597Z,1.88
2022-10-20T21:56:55.884Z,1.86
2022-10-20T21:59:25.395Z,1.82
2022-10-20T22:01:56.081Z,1.82
2022-10-20T22:04:26.973Z,1.80
2022-10-20T22:06:55.651Z,1.77
2022-10-20T22:09:25.891Z,1.73
2022-10-20T22:11:56.692Z,1.69
2022-10-20T22:14:25.132Z,1.66
2022-10-20T22:16:56.635Z,1.62
2022-10-20T22:19:26.431Z,1.59
2022-10-20T22:21:59.015Z,1.54
2022-10-20T22:24:27.908Z,1.54
2022-10-20T22:26:55.975Z,1.50
2022-10-20T22:29:24.430Z,1.46
2022-10-20T22:31:52.641Z,1.43
2022-10-20T22:34:21.001Z,1.40
2022-10-20T22:36:49.525Z,1.38
2022-10-20T22:39:17.737Z,1.34
2022-10-20T22:41:45.737Z,1.31
2022-10-20T22:44:13.801Z,1.28
2022-10-20T22:46:41.827Z,1.24
2022-10-20T22:49:12.782Z,1.22
2022-10-20T22:51:41.253Z,1.20
2022-10-20T22:54:11.119Z,1.16
2022-10-20T22:56:41.446Z,1.13
2022-10-20T22:59:09.461Z,1.10
2022-10-20T23:01:38.761Z,1.10
2022-10-20T23:04:08.923Z,1.09
2022-10-20T23:06:36.960Z,1.10
2022-10-20T23:09:05.148Z,1.10
2022-10-20T23:11:33.745Z,1.10
2022-10-20T23:14:02.339Z,1.08
2022-10-20T23:16:30.825Z,1.06
2022-10-20T23:18:59.033Z,1.02
2022-10-20T23:21:26.993Z,0.99
2022-10-20T23:23:55.558Z,0.96
2022-10-20T23:26:24.039Z,0.94
2022-10-20T23:28:53.010Z,0.92
2022-10-20T23:31:22.340Z,0.91
2022-10-20T23:33:55.100Z,0.90
2022-10-20T23:36:27.117Z,0.92
2022-10-20T23:38:55.244Z,0.91
2022-10-20T23:41:23.464Z,0.89
2022-10-20T23:43:51.631Z,0.86
2022-10-20T23:46:19.740Z,0.84
2022-10-20T23:48:49.360Z,0.84
2022-10-20T23:51:17.330Z,0.83
2022-10-20T23:53:45.435Z,0.82
2022-10-20T23:56:13.498Z,0.80
2022-10-20T23:58:41.436Z,0.74
